sensor_id;sensor_type;location;lat;lon;timestamp;P1;durP1;ratioP1;P2;durP2;ratioP2
44272;SDS011;29964;17.182;-96.766;2023-02-01T00:00:50;5.22;;;2.20;;
44272;SDS011;29964;17.182;-96.766;2023-02-01T00:03:17;7.40;;;1.98;;
44272;SDS011;29964;17.182;-96.766;2023-02-01T00:05:44;4.65;;;2.22;;
44272;SDS011;29964;17.182;-96.766;2023-02-01T00:08:11;3.33;;;2.08;;
44272;SDS011;29964;17.182;-96.766;2023-02-01T00:10:37;2.03;;;1.65;;
44272;SDS011;29964;17.182;-96.766;2023-02-01T00:13:04;2.20;;;1.73;;
44272;SDS011;29964;17.182;-96.766;2023-02-01T00:15:31;3.97;;;2.30;;
44272;SDS011;29964;17.182;-96.766;2023-02-01T00:17:59;2.10;;;1.60;;
44272;SDS011;29964;17.182;-96.766;2023-02-01T00:20:25;5.07;;;1.40;;
44272;SDS011;29964;17.182;-96.766;2023-02-01T00:22:52;10.60;;;2.20;;
44272;SDS011;29964;17.182;-96.766;2023-02-01T00:25:19;3.27;;;1.97;;
44272;SDS011;29964;17.182;-96.766;2023-02-01T00:27:49;3.47;;;2.40;;
44272;SDS011;29964;17.182;-96.766;2023-02-01T00:30:16;7.37;;;2.00;;
44272;SDS011;29964;17.182;-96.766;2023-02-01T00:32:43;4.80;;;2.40;;
44272;SDS011;29964;17.182;-96.766;2023-02-01T00:35:10;3.37;;;1.90;;
44272;SDS011;29964;17.182;-96.766;2023-02-01T00:37:36;3.57;;;2.23;;
44272;SDS011;29964;17.182;-96.766;2023-02-01T00:40:03;2.90;;;1.90;;
44272;SDS011;29964;17.182;-96.766;2023-02-01T00:42:30;3.70;;;2.33;;
44272;SDS011;29964;17.182;-96.766;2023-02-01T00:44:57;2.23;;;1.53;;
44272;SDS011;29964;17.182;-96.766;2023-02-01T00:47:23;2.40;;;1.80;;
44272;SDS011;29964;17.182;-96.766;2023-02-01T00:49:50;3.63;;;2.63;;
44272;SDS011;29964;17.182;-96.766;2023-02-01T00:52:17;6.23;;;3.77;;
44272;SDS011;29964;17.182;-96.766;2023-02-01T00:54:44;3.30;;;2.17;;
44272;SDS011;29964;17.182;-96.766;2023-02-01T00:57:10;3.20;;;2.03;;
44272;SDS011;29964;17.182;-96.766;2023-02-01T00:59:37;7.13;;;3.37;;
44272;SDS011;29964;17.182;-96.766;2023-02-01T01:02:04;2.20;;;1.50;;
44272;SDS011;29964;17.182;-96.766;2023-02-01T01:04:30;3.77;;;2.30;;
44272;SDS011;29964;17.182;-96.766;2023-02-01T01:06:57;5.03;;;2.43;;
44272;SDS011;29964;17.182;-96.766;2023-02-01T01:09:24;4.60;;;2.27;;
44272;SDS011;29964;17.182;-96.766;2023-02-01T01:11:50;6.67;;;2.70;;
44272;SDS011;29964;17.182;-96.766;2023-02-01T01:14:18;4.67;;;2.77;;
44272;SDS011;29964;17.182;-96.766;2023-02-01T01:16:45;5.80;;;1.83;;
44272;SDS011;29964;17.182;-96.766;2023-02-01T01:19:13;3.73;;;2.53;;
44272;SDS011;29964;17.182;-96.766;2023-02-01T01:21:40;3.10;;;1.90;;
44272;SDS011;29964;17.182;-96.766;2023-02-01T01:24:07;4.40;;;1.80;;
44272;SDS011;29964;17.182;-96.766;2023-02-01T01:26:34;4.10;;;2.67;;
44272;SDS011;29964;17.182;-96.766;2023-02-01T01:29:02;3.50;;;2.33;;
44272;SDS011;29964;17.182;-96.766;2023-02-01T01:31:29;2.13;;;1.70;;
44272;SDS011;29964;17.182;-96.766;2023-02-01T01:33:57;5.17;;;3.00;;
44272;SDS011;29964;17.182;-96.766;2023-02-01T01:36:26;3.37;;;2.10;;
44272;SDS011;29964;17.182;-96.766;2023-02-01T01:38:53;2.03;;;1.37;;
44272;SDS011;29964;17.182;-96.766;2023-02-01T01:41:24;4.20;;;1.87;;
44272;SDS011;29964;17.182;-96.766;2023-02-01T01:46:29;3.53;;;2.30;;
44272;SDS011;29964;17.182;-96.766;2023-02-01T01:51:33;5.27;;;3.43;;
44272;SDS011;29964;17.182;-96.766;2023-02-01T01:54:05;5.67;;;2.10;;
44272;SDS011;29964;17.182;-96.766;2023-02-01T01:56:33;11.20;;;2.70;;
44272;SDS011;29964;17.182;-96.766;2023-02-01T01:59:01;2.17;;;1.70;;
44272;SDS011;29964;17.182;-96.766;2023-02-01T02:01:29;3.97;;;1.90;;
44272;SDS011;29964;17.182;-96.766;2023-02-01T02:03:56;4.67;;;1.77;;
44272;SDS011;29964;17.182;-96.766;2023-02-01T02:06:29;13.57;;;2.87;;
44272;SDS011;29964;17.182;-96.766;2023-02-01T02:08:57;4.82;;;3.25;;
44272;SDS011;29964;17.182;-96.766;2023-02-01T02:11:25;4.57;;;2.60;;
44272;SDS011;29964;17.182;-96.766;2023-02-01T02:13:53;2.87;;;1.87;;
44272;SDS011;29964;17.182;-96.766;2023-02-01T02:16:24;3.60;;;2.37;;
44272;SDS011;29964;17.182;-96.766;2023-02-01T02:26:56;5.65;;;3.30;;
44272;SDS011;29964;17.182;-96.766;2023-02-01T02:29:39;2.13;;;1.70;;
44272;SDS011;29964;17.182;-96.766;2023-02-01T02:35:09;5.50;;;1.90;;
44272;SDS011;29964;17.182;-96.766;2023-02-01T02:37:41;9.40;;;3.87;;
44272;SDS011;29964;17.182;-96.766;2023-02-01T02:40:18;11.43;;;3.87;;
44272;SDS011;29964;17.182;-96.766;2023-02-01T02:42:51;2.97;;;2.10;;
44272;SDS011;29964;17.182;-96.766;2023-02-01T02:51:12;2.53;;;1.57;;
44272;SDS011;29964;17.182;-96.766;2023-02-01T02:54:11;22.50;;;2.70;;
44272;SDS011;29964;17.182;-96.766;2023-02-01T02:57:34;4.23;;;1.90;;
44272;SDS011;29964;17.182;-96.766;2023-02-01T03:00:17;3.93;;;2.07;;
44272;SDS011;29964;17.182;-96.766;2023-02-01T03:03:04;4.57;;;2.37;;
44272;SDS011;29964;17.182;-96.766;2023-02-01T03:05:50;3.90;;;2.00;;
44272;SDS011;29964;17.182;-96.766;2023-02-01T03:08:18;9.00;;;2.00;;
44272;SDS011;29964;17.182;-96.766;2023-02-01T03:10:51;5.90;;;3.50;;
44272;SDS011;29964;17.182;-96.766;2023-02-01T03:13:26;9.98;;;2.78;;
44272;SDS011;29964;17.182;-96.766;2023-02-01T03:18:42;5.27;;;2.57;;
44272;SDS011;29964;17.182;-96.766;2023-02-01T03:21:13;6.87;;;2.17;;
44272;SDS011;29964;17.182;-96.766;2023-02-01T03:23:41;2.30;;;1.83;;
44272;SDS011;29964;17.182;-96.766;2023-02-01T03:26:10;3.60;;;1.40;;
44272;SDS011;29964;17.182;-96.766;2023-02-01T03:28:48;4.97;;;1.97;;
44272;SDS011;29964;17.182;-96.766;2023-02-01T03:31:16;2.37;;;1.37;;
44272;SDS011;29964;17.182;-96.766;2023-02-01T03:33:44;8.50;;;3.93;;
44272;SDS011;29964;17.182;-96.766;2023-02-01T03:36:45;3.03;;;1.90;;
44272;SDS011;29964;17.182;-96.766;2023-02-01T03:39:15;2.80;;;1.50;;
44272;SDS011;29964;17.182;-96.766;2023-02-01T03:46:48;6.27;;;3.00;;
44272;SDS011;29964;17.182;-96.766;2023-02-01T03:49:25;2.53;;;1.87;;
44272;SDS011;29964;17.182;-96.766;2023-02-01T03:51:53;7.33;;;1.80;;
44272;SDS011;29964;17.182;-96.766;2023-02-01T03:54:21;3.80;;;2.27;;
44272;SDS011;29964;17.182;-96.766;2023-02-01T03:56:48;2.70;;;1.47;;
44272;SDS011;29964;17.182;-96.766;2023-02-01T03:59:16;1.97;;;1.30;;
44272;SDS011;29964;17.182;-96.766;2023-02-01T04:01:43;1.77;;;1.37;;
44272;SDS011;29964;17.182;-96.766;2023-02-01T04:04:10;9.07;;;3.33;;
44272;SDS011;29964;17.182;-96.766;2023-02-01T04:09:11;6.73;;;3.00;;
44272;SDS011;29964;17.182;-96.766;2023-02-01T04:11:39;1.87;;;1.47;;
44272;SDS011;29964;17.182;-96.766;2023-02-01T04:14:05;2.77;;;1.93;;
44272;SDS011;29964;17.182;-96.766;2023-02-01T04:16:33;6.50;;;2.00;;
44272;SDS011;29964;17.182;-96.766;2023-02-01T04:19:00;9.97;;;1.77;;
44272;SDS011;29964;17.182;-96.766;2023-02-01T04:21:27;3.53;;;2.40;;
44272;SDS011;29964;17.182;-96.766;2023-02-01T04:23:54;3.83;;;2.53;;
44272;SDS011;29964;17.182;-96.766;2023-02-01T04:26:22;5.23;;;2.73;;
44272;SDS011;29964;17.182;-96.766;2023-02-01T04:28:49;9.53;;;2.80;;
44272;SDS011;29964;17.182;-96.766;2023-02-01T04:31:18;3.17;;;2.07;;
44272;SDS011;29964;17.182;-96.766;2023-02-01T04:33:52;2.43;;;1.70;;
44272;SDS011;29964;17.182;-96.766;2023-02-01T04:36:19;3.13;;;2.07;;
44272;SDS011;29964;17.182;-96.766;2023-02-01T04:38:48;4.60;;;2.50;;
44272;SDS011;29964;17.182;-96.766;2023-02-01T04:41:15;4.40;;;2.67;;
44272;SDS011;29964;17.182;-96.766;2023-02-01T04:43:48;2.60;;;1.60;;
44272;SDS011;29964;17.182;-96.766;2023-02-01T04:46:17;1.20;;;0.97;;
44272;SDS011;29964;17.182;-96.766;2023-02-01T04:48:44;1.60;;;1.50;;
44272;SDS011;29964;17.182;-96.766;2023-02-01T04:51:11;2.63;;;2.13;;
44272;SDS011;29964;17.182;-96.766;2023-02-01T04:53:38;2.80;;;1.50;;
44272;SDS011;29964;17.182;-96.766;2023-02-01T04:56:05;5.43;;;1.93;;
44272;SDS011;29964;17.182;-96.766;2023-02-01T04:58:32;3.87;;;2.33;;
44272;SDS011;29964;17.182;-96.766;2023-02-01T05:00:59;1.87;;;1.27;;
44272;SDS011;29964;17.182;-96.766;2023-02-01T05:03:27;2.57;;;2.20;;
44272;SDS011;29964;17.182;-96.766;2023-02-01T05:05:54;2.37;;;1.97;;
44272;SDS011;29964;17.182;-96.766;2023-02-01T05:08:21;8.07;;;1.57;;
44272;SDS011;29964;17.182;-96.766;2023-02-01T05:10:50;5.03;;;2.63;;
44272;SDS011;29964;17.182;-96.766;2023-02-01T05:13:17;3.87;;;2.10;;
44272;SDS011;29964;17.182;-96.766;2023-02-01T05:18:28;1.43;;;1.00;;
44272;SDS011;29964;17.182;-96.766;2023-02-01T05:20:55;3.97;;;2.77;;
44272;SDS011;29964;17.182;-96.766;2023-02-01T05:23:22;2.83;;;1.70;;
44272;SDS011;29964;17.182;-96.766;2023-02-01T05:25:49;2.40;;;1.90;;
44272;SDS011;29964;17.182;-96.766;2023-02-01T05:28:15;3.60;;;2.53;;
44272;SDS011;29964;17.182;-96.766;2023-02-01T05:30:42;9.17;;;2.17;;
44272;SDS011;29964;17.182;-96.766;2023-02-01T05:33:09;3.03;;;2.23;;
44272;SDS011;29964;17.182;-96.766;2023-02-01T05:35:35;4.87;;;1.80;;
44272;SDS011;29964;17.182;-96.766;2023-02-01T05:38:02;18.20;;;3.90;;
44272;SDS011;29964;17.182;-96.766;2023-02-01T05:40:29;7.70;;;1.70;;
44272;SDS011;29964;17.182;-96.766;2023-02-01T05:42:55;2.00;;;1.50;;
44272;SDS011;29964;17.182;-96.766;2023-02-01T05:45:22;3.37;;;2.73;;
44272;SDS011;29964;17.182;-96.766;2023-02-01T05:47:49;2.50;;;2.00;;
44272;SDS011;29964;17.182;-96.766;2023-02-01T05:50:16;2.53;;;1.40;;
44272;SDS011;29964;17.182;-96.766;2023-02-01T05:52:43;4.90;;;2.37;;
44272;SDS011;29964;17.182;-96.766;2023-02-01T05:55:09;10.37;;;3.10;;
44272;SDS011;29964;17.182;-96.766;2023-02-01T05:57:36;4.03;;;2.20;;
44272;SDS011;29964;17.182;-96.766;2023-02-01T06:00:03;6.10;;;3.00;;
44272;SDS011;29964;17.182;-96.766;2023-02-01T06:02:30;2.43;;;1.80;;
44272;SDS011;29964;17.182;-96.766;2023-02-01T06:04:56;1.87;;;1.37;;
44272;SDS011;29964;17.182;-96.766;2023-02-01T06:07:23;2.87;;;1.80;;
44272;SDS011;29964;17.182;-96.766;2023-02-01T06:09:50;1.93;;;1.57;;
44272;SDS011;29964;17.182;-96.766;2023-02-01T06:12:16;3.03;;;1.90;;
44272;SDS011;29964;17.182;-96.766;2023-02-01T06:14:43;1.33;;;1.20;;
44272;SDS011;29964;17.182;-96.766;2023-02-01T06:17:10;1.70;;;1.17;;
44272;SDS011;29964;17.182;-96.766;2023-02-01T06:19:37;3.27;;;2.03;;
44272;SDS011;29964;17.182;-96.766;2023-02-01T06:22:05;7.70;;;2.07;;
44272;SDS011;29964;17.182;-96.766;2023-02-01T06:24:32;3.77;;;2.50;;
44272;SDS011;29964;17.182;-96.766;2023-02-01T06:26:59;2.23;;;1.60;;
44272;SDS011;29964;17.182;-96.766;2023-02-01T06:29:25;2.50;;;1.80;;
44272;SDS011;29964;17.182;-96.766;2023-02-01T06:31:52;2.77;;;1.70;;
44272;SDS011;29964;17.182;-96.766;2023-02-01T06:34:19;3.03;;;2.03;;
44272;SDS011;29964;17.182;-96.766;2023-02-01T06:36:47;2.97;;;2.17;;
44272;SDS011;29964;17.182;-96.766;2023-02-01T06:39:14;13.17;;;2.43;;
44272;SDS011;29964;17.182;-96.766;2023-02-01T06:41:42;5.30;;;2.63;;
44272;SDS011;29964;17.182;-96.766;2023-02-01T06:44:08;3.50;;;2.37;;
44272;SDS011;29964;17.182;-96.766;2023-02-01T06:46:35;6.27;;;2.67;;
44272;SDS011;29964;17.182;-96.766;2023-02-01T06:49:02;6.87;;;2.27;;
44272;SDS011;29964;17.182;-96.766;2023-02-01T06:51:29;2.67;;;2.10;;
44272;SDS011;29964;17.182;-96.766;2023-02-01T06:53:56;2.00;;;1.70;;
44272;SDS011;29964;17.182;-96.766;2023-02-01T06:56:23;3.40;;;2.23;;
44272;SDS011;29964;17.182;-96.766;2023-02-01T06:58:50;1.63;;;1.47;;
44272;SDS011;29964;17.182;-96.766;2023-02-01T07:01:16;4.30;;;1.97;;
44272;SDS011;29964;17.182;-96.766;2023-02-01T07:03:46;2.10;;;1.60;;
44272;SDS011;29964;17.182;-96.766;2023-02-01T07:06:13;1.20;;;1.10;;
44272;SDS011;29964;17.182;-96.766;2023-02-01T07:08:39;4.60;;;2.67;;
44272;SDS011;29964;17.182;-96.766;2023-02-01T07:11:07;4.50;;;2.33;;
44272;SDS011;29964;17.182;-96.766;2023-02-01T07:13:34;1.97;;;1.70;;
44272;SDS011;29964;17.182;-96.766;2023-02-01T07:16:02;4.57;;;2.77;;
44272;SDS011;29964;17.182;-96.766;2023-02-01T07:18:29;5.37;;;2.60;;
44272;SDS011;29964;17.182;-96.766;2023-02-01T07:20:56;3.00;;;2.47;;
44272;SDS011;29964;17.182;-96.766;2023-02-01T07:23:23;3.13;;;1.97;;
44272;SDS011;29964;17.182;-96.766;2023-02-01T07:25:57;2.13;;;1.30;;
44272;SDS011;29964;17.182;-96.766;2023-02-01T07:28:24;3.77;;;2.10;;
44272;SDS011;29964;17.182;-96.766;2023-02-01T07:30:51;2.60;;;1.73;;
44272;SDS011;29964;17.182;-96.766;2023-02-01T07:33:21;3.27;;;1.90;;
44272;SDS011;29964;17.182;-96.766;2023-02-01T07:35:49;7.03;;;1.90;;
44272;SDS011;29964;17.182;-96.766;2023-02-01T07:38:16;3.03;;;1.77;;
44272;SDS011;29964;17.182;-96.766;2023-02-01T07:40:43;1.83;;;1.57;;
44272;SDS011;29964;17.182;-96.766;2023-02-01T07:43:10;2.93;;;1.87;;
44272;SDS011;29964;17.182;-96.766;2023-02-01T07:45:37;2.57;;;2.30;;
44272;SDS011;29964;17.182;-96.766;2023-02-01T07:48:04;3.93;;;2.67;;
44272;SDS011;29964;17.182;-96.766;2023-02-01T07:50:30;2.57;;;2.07;;
44272;SDS011;29964;17.182;-96.766;2023-02-01T07:53:00;2.20;;;1.77;;
44272;SDS011;29964;17.182;-96.766;2023-02-01T07:55:27;2.03;;;1.37;;
44272;SDS011;29964;17.182;-96.766;2023-02-01T07:57:57;4.03;;;2.53;;
44272;SDS011;29964;17.182;-96.766;2023-02-01T08:00:24;4.53;;;2.43;;
44272;SDS011;29964;17.182;-96.766;2023-02-01T08:05:36;2.33;;;1.73;;
44272;SDS011;29964;17.182;-96.766;2023-02-01T08:08:03;4.70;;;1.80;;
44272;SDS011;29964;17.182;-96.766;2023-02-01T08:10:30;1.77;;;1.47;;
44272;SDS011;29964;17.182;-96.766;2023-02-01T08:13:00;5.40;;;2.50;;
44272;SDS011;29964;17.182;-96.766;2023-02-01T08:15:27;2.90;;;1.53;;
44272;SDS011;29964;17.182;-96.766;2023-02-01T08:17:54;1.23;;;0.93;;
44272;SDS011;29964;17.182;-96.766;2023-02-01T08:20:21;2.93;;;2.60;;
44272;SDS011;29964;17.182;-96.766;2023-02-01T08:22:49;2.87;;;2.07;;
44272;SDS011;29964;17.182;-96.766;2023-02-01T08:25:16;2.37;;;1.87;;
44272;SDS011;29964;17.182;-96.766;2023-02-01T08:27:43;2.97;;;1.93;;
44272;SDS011;29964;17.182;-96.766;2023-02-01T08:30:09;2.77;;;2.07;;
44272;SDS011;29964;17.182;-96.766;2023-02-01T08:32:36;3.40;;;2.53;;
44272;SDS011;29964;17.182;-96.766;2023-02-01T08:35:03;4.10;;;2.53;;
44272;SDS011;29964;17.182;-96.766;2023-02-01T08:37:30;4.97;;;3.50;;
44272;SDS011;29964;17.182;-96.766;2023-02-01T08:39:57;3.20;;;2.20;;
44272;SDS011;29964;17.182;-96.766;2023-02-01T08:42:24;7.13;;;2.97;;
44272;SDS011;29964;17.182;-96.766;2023-02-01T08:45:09;2.78;;;2.25;;
44272;SDS011;29964;17.182;-96.766;2023-02-01T08:47:36;3.07;;;2.17;;
44272;SDS011;29964;17.182;-96.766;2023-02-01T08:50:02;2.60;;;2.10;;
44272;SDS011;29964;17.182;-96.766;2023-02-01T08:52:29;2.80;;;1.87;;
44272;SDS011;29964;17.182;-96.766;2023-02-01T08:54:56;3.90;;;2.60;;
44272;SDS011;29964;17.182;-96.766;2023-02-01T08:57:22;2.33;;;1.90;;
44272;SDS011;29964;17.182;-96.766;2023-02-01T08:59:49;2.53;;;1.63;;
44272;SDS011;29964;17.182;-96.766;2023-02-01T09:02:16;3.33;;;2.40;;
44272;SDS011;29964;17.182;-96.766;2023-02-01T09:04:43;3.03;;;2.53;;
44272;SDS011;29964;17.182;-96.766;2023-02-01T09:07:10;3.37;;;2.50;;
44272;SDS011;29964;17.182;-96.766;2023-02-01T09:09:38;16.90;;;3.77;;
44272;SDS011;29964;17.182;-96.766;2023-02-01T09:12:05;2.90;;;1.97;;
44272;SDS011;29964;17.182;-96.766;2023-02-01T09:14:32;2.47;;;1.83;;
44272;SDS011;29964;17.182;-96.766;2023-02-01T09:16:58;4.20;;;2.33;;
44272;SDS011;29964;17.182;-96.766;2023-02-01T09:19:25;3.37;;;2.90;;
44272;SDS011;29964;17.182;-96.766;2023-02-01T09:21:52;4.63;;;3.57;;
44272;SDS011;29964;17.182;-96.766;2023-02-01T09:24:18;3.07;;;2.57;;
44272;SDS011;29964;17.182;-96.766;2023-02-01T09:26:45;4.27;;;3.33;;
44272;SDS011;29964;17.182;-96.766;2023-02-01T09:29:12;3.30;;;2.67;;
44272;SDS011;29964;17.182;-96.766;2023-02-01T09:31:39;2.40;;;1.83;;
44272;SDS011;29964;17.182;-96.766;2023-02-01T09:34:06;2.97;;;2.30;;
44272;SDS011;29964;17.182;-96.766;2023-02-01T09:36:33;1.70;;;1.53;;
44272;SDS011;29964;17.182;-96.766;2023-02-01T09:39:00;2.67;;;2.00;;
44272;SDS011;29964;17.182;-96.766;2023-02-01T09:41:32;3.10;;;2.57;;
44272;SDS011;29964;17.182;-96.766;2023-02-01T09:44:22;3.50;;;2.73;;
44272;SDS011;29964;17.182;-96.766;2023-02-01T09:46:54;2.67;;;2.03;;
44272;SDS011;29964;17.182;-96.766;2023-02-01T09:49:24;2.43;;;1.97;;
44272;SDS011;29964;17.182;-96.766;2023-02-01T09:51:52;1.53;;;1.37;;
44272;SDS011;29964;17.182;-96.766;2023-02-01T09:54:29;2.37;;;1.93;;
44272;SDS011;29964;17.182;-96.766;2023-02-01T09:57:19;3.97;;;1.83;;
44272;SDS011;29964;17.182;-96.766;2023-02-01T09:59:49;2.17;;;1.70;;
44272;SDS011;29964;17.182;-96.766;2023-02-01T10:02:18;1.10;;;1.00;;
44272;SDS011;29964;17.182;-96.766;2023-02-01T10:04:47;3.63;;;2.07;;
44272;SDS011;29964;17.182;-96.766;2023-02-01T10:20:03;3.20;;;2.50;;
44272;SDS011;29964;17.182;-96.766;2023-02-01T10:22:45;3.73;;;2.70;;
44272;SDS011;29964;17.182;-96.766;2023-02-01T10:25:14;6.20;;;3.83;;
44272;SDS011;29964;17.182;-96.766;2023-02-01T10:27:42;4.07;;;3.23;;
44272;SDS011;29964;17.182;-96.766;2023-02-01T10:32:38;4.97;;;2.30;;
44272;SDS011;29964;17.182;-96.766;2023-02-01T10:35:25;4.03;;;2.60;;
44272;SDS011;29964;17.182;-96.766;2023-02-01T10:37:53;3.53;;;2.67;;
44272;SDS011;29964;17.182;-96.766;2023-02-01T10:40:21;3.20;;;2.37;;
44272;SDS011;29964;17.182;-96.766;2023-02-01T10:42:58;3.53;;;2.10;;
44272;SDS011;29964;17.182;-96.766;2023-02-01T10:45:30;1.87;;;1.33;;
44272;SDS011;29964;17.182;-96.766;2023-02-01T10:47:59;3.13;;;2.67;;
44272;SDS011;29964;17.182;-96.766;2023-02-01T10:53:03;2.87;;;2.47;;
44272;SDS011;29964;17.182;-96.766;2023-02-01T10:55:34;4.97;;;1.97;;
44272;SDS011;29964;17.182;-96.766;2023-02-01T10:58:02;4.60;;;3.47;;
44272;SDS011;29964;17.182;-96.766;2023-02-01T11:00:34;3.07;;;2.10;;
44272;SDS011;29964;17.182;-96.766;2023-02-01T11:03:19;10.27;;;2.87;;
44272;SDS011;29964;17.182;-96.766;2023-02-01T11:05:46;2.77;;;1.90;;
44272;SDS011;29964;17.182;-96.766;2023-02-01T11:08:14;6.43;;;3.17;;
44272;SDS011;29964;17.182;-96.766;2023-02-01T11:10:43;2.13;;;1.73;;
44272;SDS011;29964;17.182;-96.766;2023-02-01T11:13:16;3.87;;;2.10;;
44272;SDS011;29964;17.182;-96.766;2023-02-01T11:15:44;2.30;;;1.95;;
44272;SDS011;29964;17.182;-96.766;2023-02-01T11:18:18;2.10;;;1.70;;
44272;SDS011;29964;17.182;-96.766;2023-02-01T11:20:45;4.60;;;2.53;;
44272;SDS011;29964;17.182;-96.766;2023-02-01T11:23:15;3.90;;;2.67;;
44272;SDS011;29964;17.182;-96.766;2023-02-01T11:25:55;7.77;;;3.20;;
44272;SDS011;29964;17.182;-96.766;2023-02-01T11:28:23;4.57;;;2.47;;
44272;SDS011;29964;17.182;-96.766;2023-02-01T11:30:51;2.27;;;1.90;;
44272;SDS011;29964;17.182;-96.766;2023-02-01T11:33:21;20.03;;;3.47;;
44272;SDS011;29964;17.182;-96.766;2023-02-01T11:35:50;3.63;;;2.77;;
44272;SDS011;29964;17.182;-96.766;2023-02-01T11:38:22;4.10;;;3.40;;
44272;SDS011;29964;17.182;-96.766;2023-02-01T11:40:51;4.43;;;3.07;;
44272;SDS011;29964;17.182;-96.766;2023-02-01T11:45:55;2.77;;;2.03;;
44272;SDS011;29964;17.182;-96.766;2023-02-01T11:48:23;3.40;;;2.40;;
44272;SDS011;29964;17.182;-96.766;2023-02-01T11:58:39;2.80;;;2.00;;
44272;SDS011;29964;17.182;-96.766;2023-02-01T12:11:05;4.50;;;3.17;;
44272;SDS011;29964;17.182;-96.766;2023-02-01T12:16:29;5.67;;;2.20;;
44272;SDS011;29964;17.182;-96.766;2023-02-01T12:19:11;3.53;;;2.70;;
44272;SDS011;29964;17.182;-96.766;2023-02-01T12:29:35;4.73;;;2.37;;
44272;SDS011;29964;17.182;-96.766;2023-02-01T12:40:03;5.77;;;4.10;;
44272;SDS011;29964;17.182;-96.766;2023-02-01T12:42:42;11.13;;;6.17;;
44272;SDS011;29964;17.182;-96.766;2023-02-01T12:48:17;5.70;;;3.80;;
44272;SDS011;29964;17.182;-96.766;2023-02-01T12:50:53;3.97;;;2.80;;
44272;SDS011;29964;17.182;-96.766;2023-02-01T12:53:25;7.50;;;3.93;;
44272;SDS011;29964;17.182;-96.766;2023-02-01T12:55:54;3.97;;;3.10;;
44272;SDS011;29964;17.182;-96.766;2023-02-01T13:00:54;3.30;;;2.90;;
44272;SDS011;29964;17.182;-96.766;2023-02-01T13:05:59;2.80;;;1.93;;
44272;SDS011;29964;17.182;-96.766;2023-02-01T13:11:39;5.13;;;4.63;;
44272;SDS011;29964;17.182;-96.766;2023-02-01T13:16:52;16.17;;;3.80;;
44272;SDS011;29964;17.182;-96.766;2023-02-01T13:19:24;6.67;;;4.40;;
44272;SDS011;29964;17.182;-96.766;2023-02-01T13:21:57;6.20;;;2.83;;
44272;SDS011;29964;17.182;-96.766;2023-02-01T13:24:27;6.90;;;4.07;;
44272;SDS011;29964;17.182;-96.766;2023-02-01T13:26:55;4.37;;;3.27;;
44272;SDS011;29964;17.182;-96.766;2023-02-01T13:29:23;7.23;;;4.43;;
44272;SDS011;29964;17.182;-96.766;2023-02-01T13:41:59;26.40;;;3.43;;
44272;SDS011;29964;17.182;-96.766;2023-02-01T13:44:39;11.10;;;4.00;;
44272;SDS011;29964;17.182;-96.766;2023-02-01T13:47:49;5.67;;;3.97;;
44272;SDS011;29964;17.182;-96.766;2023-02-01T13:50:00;11.67;;;4.93;;
44272;SDS011;29964;17.182;-96.766;2023-02-01T13:52:39;12.20;;;6.00;;
44272;SDS011;29964;17.182;-96.766;2023-02-01T13:57:40;10.37;;;5.53;;
44272;SDS011;29964;17.182;-96.766;2023-02-01T14:00:30;22.87;;;7.60;;
44272;SDS011;29964;17.182;-96.766;2023-02-01T14:13:34;86.53;;;11.00;;
44272;SDS011;29964;17.182;-96.766;2023-02-01T14:23:40;44.47;;;11.10;;
44272;SDS011;29964;17.182;-96.766;2023-02-01T14:26:09;12.63;;;8.30;;
44272;SDS011;29964;17.182;-96.766;2023-02-01T14:28:38;17.77;;;9.97;;
44272;SDS011;29964;17.182;-96.766;2023-02-01T14:31:17;8.37;;;6.00;;
44272;SDS011;29964;17.182;-96.766;2023-02-01T14:33:49;10.63;;;5.93;;
44272;SDS011;29964;17.182;-96.766;2023-02-01T14:36:15;13.33;;;5.57;;
44272;SDS011;29964;17.182;-96.766;2023-02-01T14:38:47;6.73;;;4.47;;
44272;SDS011;29964;17.182;-96.766;2023-02-01T14:41:25;6.07;;;4.23;;
44272;SDS011;29964;17.182;-96.766;2023-02-01T14:49:14;12.23;;;4.30;;
44272;SDS011;29964;17.182;-96.766;2023-02-01T14:51:41;4.63;;;3.60;;
44272;SDS011;29964;17.182;-96.766;2023-02-01T14:54:09;7.17;;;4.60;;
44272;SDS011;29964;17.182;-96.766;2023-02-01T14:56:38;6.63;;;4.07;;
44272;SDS011;29964;17.182;-96.766;2023-02-01T14:59:12;6.67;;;5.37;;
44272;SDS011;29964;17.182;-96.766;2023-02-01T15:01:49;7.40;;;4.50;;
44272;SDS011;29964;17.182;-96.766;2023-02-01T15:04:17;7.00;;;3.37;;
44272;SDS011;29964;17.182;-96.766;2023-02-01T15:06:50;4.43;;;2.90;;
44272;SDS011;29964;17.182;-96.766;2023-02-01T15:09:23;4.83;;;3.20;;
44272;SDS011;29964;17.182;-96.766;2023-02-01T15:11:54;5.83;;;3.83;;
44272;SDS011;29964;17.182;-96.766;2023-02-01T15:14:21;8.00;;;4.10;;
44272;SDS011;29964;17.182;-96.766;2023-02-01T15:16:48;5.33;;;3.93;;
44272;SDS011;29964;17.182;-96.766;2023-02-01T15:19:19;8.63;;;3.27;;
44272;SDS011;29964;17.182;-96.766;2023-02-01T15:21:48;8.40;;;4.83;;
44272;SDS011;29964;17.182;-96.766;2023-02-01T15:24:22;12.60;;;3.87;;
44272;SDS011;29964;17.182;-96.766;2023-02-01T15:26:49;6.67;;;3.10;;
44272;SDS011;29964;17.182;-96.766;2023-02-01T15:29:16;4.40;;;2.70;;
44272;SDS011;29964;17.182;-96.766;2023-02-01T15:31:45;5.27;;;3.83;;
44272;SDS011;29964;17.182;-96.766;2023-02-01T15:34:12;4.00;;;2.43;;
44272;SDS011;29964;17.182;-96.766;2023-02-01T15:36:39;6.23;;;3.50;;
44272;SDS011;29964;17.182;-96.766;2023-02-01T15:41:58;3.60;;;2.70;;
44272;SDS011;29964;17.182;-96.766;2023-02-01T15:44:45;5.27;;;3.37;;
44272;SDS011;29964;17.182;-96.766;2023-02-01T15:47:19;6.17;;;2.83;;
44272;SDS011;29964;17.182;-96.766;2023-02-01T15:49:47;3.65;;;2.75;;
44272;SDS011;29964;17.182;-96.766;2023-02-01T15:52:20;6.57;;;3.43;;
44272;SDS011;29964;17.182;-96.766;2023-02-01T15:54:48;3.80;;;2.90;;
44272;SDS011;29964;17.182;-96.766;2023-02-01T15:57:24;15.33;;;4.23;;
44272;SDS011;29964;17.182;-96.766;2023-02-01T15:59:56;6.77;;;2.30;;
44272;SDS011;29964;17.182;-96.766;2023-02-01T16:02:25;2.93;;;2.47;;
44272;SDS011;29964;17.182;-96.766;2023-02-01T16:04:52;5.10;;;2.20;;
44272;SDS011;29964;17.182;-96.766;2023-02-01T16:07:26;3.13;;;2.50;;
44272;SDS011;29964;17.182;-96.766;2023-02-01T16:09:55;4.18;;;3.05;;
44272;SDS011;29964;17.182;-96.766;2023-02-01T16:12:30;2.20;;;1.80;;
44272;SDS011;29964;17.182;-96.766;2023-02-01T16:14:57;3.63;;;2.50;;
44272;SDS011;29964;17.182;-96.766;2023-02-01T16:17:23;4.23;;;2.90;;
44272;SDS011;29964;17.182;-96.766;2023-02-01T16:19:50;3.77;;;2.53;;
44272;SDS011;29964;17.182;-96.766;2023-02-01T16:22:17;5.97;;;2.30;;
44272;SDS011;29964;17.182;-96.766;2023-02-01T16:24:44;5.87;;;3.10;;
44272;SDS011;29964;17.182;-96.766;2023-02-01T16:27:10;2.83;;;2.20;;
44272;SDS011;29964;17.182;-96.766;2023-02-01T16:29:37;12.23;;;2.03;;
44272;SDS011;29964;17.182;-96.766;2023-02-01T16:32:04;4.27;;;2.47;;
44272;SDS011;29964;17.182;-96.766;2023-02-01T16:34:31;4.73;;;2.23;;
44272;SDS011;29964;17.182;-96.766;2023-02-01T16:36:59;3.17;;;1.90;;
44272;SDS011;29964;17.182;-96.766;2023-02-01T16:39:26;4.37;;;2.07;;
44272;SDS011;29964;17.182;-96.766;2023-02-01T16:41:53;6.93;;;2.33;;
44272;SDS011;29964;17.182;-96.766;2023-02-01T16:44:20;2.73;;;1.87;;
44272;SDS011;29964;17.182;-96.766;2023-02-01T16:46:47;3.43;;;2.53;;
44272;SDS011;29964;17.182;-96.766;2023-02-01T16:49:16;6.00;;;2.50;;
44272;SDS011;29964;17.182;-96.766;2023-02-01T16:51:44;4.83;;;2.97;;
44272;SDS011;29964;17.182;-96.766;2023-02-01T16:54:10;3.97;;;2.27;;
44272;SDS011;29964;17.182;-96.766;2023-02-01T16:56:37;4.63;;;2.30;;
44272;SDS011;29964;17.182;-96.766;2023-02-01T16:59:06;4.37;;;1.70;;
44272;SDS011;29964;17.182;-96.766;2023-02-01T17:01:34;3.53;;;1.67;;